createdAt,value
2019-03-02T00:01:29.003Z,71.89
2019-03-02T00:03:56.799Z,71.87
2019-03-02T00:06:23.657Z,72.01
2019-03-02T00:08:50.671Z,72.12
2019-03-02T00:11:17.820Z,71.97
2019-03-02T00:13:46.490Z,71.43
2019-03-02T00:16:13.183Z,71.91
2019-03-02T00:18:40.002Z,72.10
2019-03-02T00:21:06.688Z,72.10
2019-03-02T00:23:33.423Z,72.29
2019-03-02T00:26:00.507Z,72.25
2019-03-02T00:28:27.344Z,72.70
2019-03-02T00:30:54.873Z,72.46
2019-03-02T00:33:22.709Z,72.71
2019-03-02T00:35:49.463Z,72.62
2019-03-02T00:38:16.171Z,72.55
2019-03-02T00:40:42.942Z,72.76
2019-03-02T00:43:09.643Z,72.76
2019-03-02T00:45:36.372Z,72.23
2019-03-02T00:48:03.084Z,72.65
2019-03-02T00:50:30.156Z,73.00
2019-03-02T00:52:59.137Z,72.54
2019-03-02T00:55:28.561Z,72.33
2019-03-02T00:57:54.531Z,72.28
2019-03-02T01:00:21.209Z,72.48
2019-03-02T01:02:48.312Z,72.06
2019-03-02T01:05:15.039Z,72.17
2019-03-02T01:07:42.177Z,71.89
2019-03-02T01:10:09.927Z,71.38
2019-03-02T01:12:36.652Z,71.28
2019-03-02T01:15:08.503Z,71.47
2019-03-02T01:17:34.937Z,71.22
2019-03-02T01:20:01.781Z,70.46
2019-03-02T01:22:28.890Z,70.39
2019-03-02T01:24:55.637Z,70.05
2019-03-02T01:27:22.638Z,70.03
2019-03-02T01:29:51.634Z,69.44
2019-03-02T01:32:18.797Z,69.66
2019-03-02T01:34:45.926Z,69.56
2019-03-02T01:37:12.628Z,69.35
2019-03-02T01:39:39.419Z,69.42
2019-03-02T01:42:06.436Z,69.15
2019-03-02T01:44:33.134Z,69.17
2019-03-02T01:46:59.845Z,69.55
2019-03-02T01:49:26.579Z,69.39
2019-03-02T01:51:54.750Z,69.45
2019-03-02T01:54:22.082Z,69.48
2019-03-02T01:56:48.777Z,69.89
2019-03-02T01:59:15.483Z,70.03
2019-03-02T02:01:42.209Z,70.12
2019-03-02T02:04:09.280Z,70.07
2019-03-02T02:06:36.181Z,70.22
2019-03-02T02:09:05.699Z,70.27
2019-03-02T02:11:32.735Z,70.60
2019-03-02T02:13:59.438Z,70.62
2019-03-02T02:16:26.151Z,70.81
2019-03-02T02:18:53.597Z,70.85
2019-03-02T02:21:20.294Z,70.79
2019-03-02T02:23:50.853Z,70.67
2019-03-02T02:26:17.657Z,70.49
2019-03-02T02:28:44.817Z,70.60
2019-03-02T02:31:11.608Z,70.99
2019-03-02T02:33:43.257Z,71.32
2019-03-02T02:36:07.421Z,71.26
2019-03-02T02:38:34.127Z,71.01
2019-03-02T02:41:00.865Z,70.94
2019-03-02T02:43:27.666Z,71.38
2019-03-02T02:45:55.270Z,71.54
2019-03-02T02:48:26.276Z,71.72
2019-03-02T02:50:50.649Z,72.11
2019-03-02T02:53:17.453Z,72.16
2019-03-02T02:55:44.839Z,72.41
2019-03-02T02:58:12.598Z,72.63
2019-03-02T03:00:40.196Z,72.63
2019-03-02T03:03:06.895Z,72.78
2019-03-02T03:05:33.667Z,72.91
2019-03-02T03:08:00.513Z,72.71
2019-03-02T03:10:35.245Z,72.65
2019-03-02T03:13:04.052Z,72.87
2019-03-02T03:15:36.952Z,72.97
2019-03-02T03:18:07.295Z,73.25
2019-03-02T03:20:32.964Z,73.23
2019-03-02T03:23:01.981Z,73.03
2019-03-02T03:25:28.759Z,73.25
2019-03-02T03:27:55.492Z,73.10
2019-03-02T03:30:33.984Z,73.45
2019-03-02T03:32:55.740Z,73.63
2019-03-02T03:35:20.147Z,73.63
2019-03-02T03:37:51.194Z,73.46
2019-03-02T03:40:20.077Z,73.60
2019-03-02T03:42:46.081Z,73.47
2019-03-02T03:45:12.931Z,73.56
2019-03-02T03:47:43.550Z,73.72
2019-03-02T03:50:14.074Z,73.53
2019-03-02T03:52:38.958Z,73.48
2019-03-02T03:55:07.585Z,73.36
2019-03-02T03:57:34.330Z,73.59
2019-03-02T04:00:01.075Z,73.49
2019-03-02T04:02:31.350Z,73.61
2019-03-02T04:04:56.381Z,73.54
2019-03-02T04:07:23.128Z,73.96
2019-03-02T04:09:49.869Z,74.20
2019-03-02T04:12:19.772Z,73.81
2019-03-02T04:14:48.928Z,73.93
2019-03-02T04:17:15.624Z,73.82
2019-03-02T04:19:42.585Z,73.54
2019-03-02T04:22:10.814Z,73.64
2019-03-02T04:24:39.553Z,73.78
2019-03-02T04:27:06.494Z,73.64
2019-03-02T04:29:33.456Z,73.83
2019-03-02T04:32:00.512Z,73.79
2019-03-02T04:34:27.317Z,73.93
2019-03-02T04:36:54.492Z,74.24
2019-03-02T04:39:21.242Z,74.60
2019-03-02T04:41:47.932Z,74.44
2019-03-02T04:44:14.651Z,74.75
2019-03-02T04:46:41.513Z,74.56
2019-03-02T04:49:10.965Z,74.56
2019-03-02T04:51:38.819Z,74.73
2019-03-02T04:54:05.924Z,74.42
2019-03-02T04:56:34.556Z,74.64
2019-03-02T04:59:02.974Z,74.65
2019-03-02T05:01:30.112Z,74.61
2019-03-02T05:03:57.297Z,74.67
2019-03-02T05:06:25.056Z,74.40
2019-03-02T05:08:51.756Z,74.70
2019-03-02T05:11:18.578Z,74.67
2019-03-02T05:13:47.094Z,74.47
2019-03-02T05:16:13.918Z,74.18
2019-03-02T05:18:40.618Z,74.35
2019-03-02T05:21:07.745Z,74.61
2019-03-02T05:23:36.526Z,74.43
2019-03-02T05:26:03.277Z,75.20
2019-03-02T05:28:32.988Z,75.86
2019-03-02T05:31:02.641Z,75.98
2019-03-02T05:33:31.096Z,75.86
2019-03-02T05:35:57.806Z,76.09
2019-03-02T05:38:24.962Z,75.79
2019-03-02T05:40:51.692Z,76.02
2019-03-02T05:43:18.629Z,76.46
2019-03-02T05:45:45.455Z,76.81
2019-03-02T05:48:12.270Z,76.75
2019-03-02T05:50:39.354Z,77.16
2019-03-02T05:53:06.538Z,78.10
2019-03-02T05:55:33.223Z,78.43
2019-03-02T05:58:00.020Z,78.02
2019-03-02T06:00:26.724Z,78.71
2019-03-02T06:02:53.456Z,78.94
2019-03-02T06:05:20.162Z,78.30
2019-03-02T06:07:47.172Z,77.88
2019-03-02T06:10:13.977Z,77.78
2019-03-02T06:12:40.676Z,78.05
2019-03-02T06:15:08.669Z,78.06
2019-03-02T06:17:35.417Z,77.90
2019-03-02T06:20:04.166Z,78.41
2019-03-02T06:22:31.144Z,77.87
2019-03-02T06:24:57.839Z,77.99
2019-03-02T06:27:25.345Z,78.39
2019-03-02T06:29:52.152Z,78.71
2019-03-02T06:32:18.962Z,78.54
2019-03-02T06:34:45.705Z,78.20
2019-03-02T06:37:12.443Z,78.33
2019-03-02T06:39:41.069Z,78.16
2019-03-02T06:42:09.936Z,78.17
2019-03-02T06:44:36.758Z,77.58
2019-03-02T06:47:05.647Z,77.71
2019-03-02T06:49:37.114Z,77.83
2019-03-02T06:52:03.814Z,78.19
2019-03-02T06:54:30.666Z,77.92
2019-03-02T06:56:59.062Z,77.82
2019-03-02T06:59:25.829Z,77.89
2019-03-02T07:01:52.959Z,77.84
2019-03-02T07:04:21.872Z,77.68
2019-03-02T07:06:48.977Z,77.60
2019-03-02T07:09:15.727Z,77.47
2019-03-02T07:11:44.352Z,78.07
2019-03-02T07:14:11.054Z,78.11
2019-03-02T07:16:37.771Z,78.21
2019-03-02T07:19:23.393Z,77.92
2019-03-02T07:21:50.099Z,77.61
2019-03-02T07:24:16.843Z,77.61
2019-03-02T07:26:43.930Z,78.17
2019-03-02T07:29:13.895Z,77.68
2019-03-02T07:31:39.301Z,77.46
2019-03-02T07:34:08.799Z,77.83
2019-03-02T07:36:35.340Z,78.34
2019-03-02T07:39:03.018Z,78.07
2019-03-02T07:41:30.093Z,77.77
2019-03-02T07:43:56.826Z,77.77
2019-03-02T07:46:23.679Z,77.75
2019-03-02T07:48:52.834Z,78.10
2019-03-02T07:51:19.688Z,77.76
2019-03-02T07:53:46.437Z,77.73
2019-03-02T07:56:13.462Z,77.84
2019-03-02T07:58:40.228Z,78.89
2019-03-02T08:01:06.973Z,78.67
2019-03-02T08:03:34.035Z,78.20
2019-03-02T08:06:01.339Z,78.47
2019-03-02T08:08:28.303Z,78.32
2019-03-02T08:10:55.168Z,77.83
2019-03-02T08:13:21.927Z,77.81
2019-03-02T08:15:48.753Z,78.07
2019-03-02T08:18:15.499Z,77.72
2019-03-02T08:20:42.854Z,77.58
2019-03-02T08:23:09.921Z,78.36
2019-03-02T08:25:37.653Z,78.31
2019-03-02T08:28:06.732Z,78.73
2019-03-02T08:30:37.481Z,78.81
2019-03-02T08:33:04.222Z,78.72
2019-03-02T08:35:30.921Z,78.60
2019-03-02T08:37:58.037Z,78.87
2019-03-02T08:40:25.474Z,78.57
2019-03-02T08:42:52.419Z,78.56
2019-03-02T08:45:22.565Z,78.32
2019-03-02T08:47:50.732Z,78.66
2019-03-02T08:50:19.934Z,78.79
2019-03-02T08:52:46.679Z,79.14
2019-03-02T08:55:13.956Z,78.98
2019-03-02T08:57:40.739Z,78.91
2019-03-02T09:00:11.305Z,79.11
2019-03-02T09:02:38.385Z,79.41
2019-03-02T09:05:07.639Z,79.10
2019-03-02T09:07:35.639Z,78.96
2019-03-02T09:10:02.521Z,78.93
2019-03-02T09:12:29.605Z,78.58
2019-03-02T09:14:56.312Z,78.39
2019-03-02T09:17:23.053Z,78.76
2019-03-02T09:19:50.031Z,78.89
2019-03-02T09:22:16.980Z,78.87
2019-03-02T09:24:45.883Z,78.56
2019-03-02T09:27:12.806Z,78.61
2019-03-02T09:29:42.091Z,78.63
2019-03-02T09:32:11.014Z,78.64
2019-03-02T09:34:40.530Z,78.76
2019-03-02T09:37:08.118Z,78.97
2019-03-02T09:39:38.204Z,79.17
2019-03-02T09:42:05.247Z,79.48
2019-03-02T09:44:32.757Z,79.38
2019-03-02T09:47:00.984Z,79.46
2019-03-02T09:49:28.015Z,79.28
2019-03-02T09:51:56.996Z,79.14
2019-03-02T09:54:23.881Z,79.17
2019-03-02T09:56:50.659Z,78.96
2019-03-02T09:59:17.795Z,78.64
2019-03-02T10:01:45.091Z,77.83
2019-03-02T10:04:15.010Z,77.80
2019-03-02T10:06:41.723Z,77.37
2019-03-02T10:09:08.964Z,77.81
2019-03-02T10:11:35.742Z,77.68
2019-03-02T10:14:24.908Z,77.63
2019-03-02T10:16:50.721Z,77.52
2019-03-02T10:19:17.442Z,76.91
2019-03-02T10:21:47.458Z,76.02
2019-03-02T10:24:13.538Z,76.28
2019-03-02T10:26:43.471Z,76.46
2019-03-02T10:29:10.850Z,76.27
2019-03-02T10:31:40.535Z,75.92
2019-03-02T10:34:08.628Z,75.80
2019-03-02T10:36:38.165Z,75.77
2019-03-02T10:39:06.342Z,75.17
2019-03-02T10:41:33.065Z,74.43
2019-03-02T10:43:59.946Z,73.69
2019-03-02T10:46:28.959Z,73.31
2019-03-02T10:48:59.168Z,72.57
2019-03-02T10:51:26.051Z,72.52
2019-03-02T10:53:55.931Z,72.71
2019-03-02T10:56:24.707Z,73.06
2019-03-02T10:59:03.006Z,72.97
2019-03-02T11:01:30.434Z,72.68
2019-03-02T11:04:00.435Z,72.55
2019-03-02T11:06:50.153Z,72.63
2019-03-02T11:09:40.805Z,72.49
2019-03-02T11:12:28.433Z,72.33
2019-03-02T11:15:04.122Z,71.45
2019-03-02T11:17:49.090Z,71.72
2019-03-02T11:20:34.256Z,71.62
2019-03-02T11:23:19.646Z,70.85
2019-03-02T11:26:08.060Z,70.02
2019-03-02T11:28:49.037Z,70.36
2019-03-02T11:31:29.047Z,68.98
2019-03-02T11:34:18.282Z,68.65
2019-03-02T11:37:03.512Z,68.41
2019-03-02T11:39:44.321Z,68.38
2019-03-02T11:42:36.523Z,66.42
2019-03-02T11:45:13.070Z,66.69
2019-03-02T11:47:57.973Z,65.44
2019-03-02T11:50:52.215Z,65.50
2019-03-02T11:53:24.697Z,65.19
2019-03-02T11:56:11.005Z,65.44
2019-03-02T11:59:10.493Z,65.48
2019-03-02T12:02:03.933Z,65.70
2019-03-02T12:04:52.299Z,65.12
2019-03-02T12:07:38.267Z,65.38
2019-03-02T12:10:26.914Z,65.23
2019-03-02T12:13:12.494Z,65.10
2019-03-02T12:16:11.039Z,64.77
2019-03-02T12:18:51.056Z,64.39
2019-03-02T12:21:45.481Z,63.40
2019-03-02T12:24:22.269Z,61.62
2019-03-02T12:27:06.518Z,62.32
2019-03-02T12:29:55.987Z,62.01
2019-03-02T12:32:57.998Z,61.91
2019-03-02T12:35:44.974Z,61.77
2019-03-02T12:38:29.180Z,61.37
2019-03-02T12:41:18.993Z,61.80
2019-03-02T12:44:04.336Z,61.94
2019-03-02T12:46:43.571Z,61.99
2019-03-02T12:49:19.425Z,61.39
2019-03-02T12:52:15.822Z,61.22
2019-03-02T12:55:00.430Z,60.00
2019-03-02T12:57:46.652Z,60.29
2019-03-02T13:00:24.431Z,59.87
2019-03-02T13:03:07.983Z,60.22
2019-03-02T13:05:47.996Z,59.99
2019-03-02T13:08:46.593Z,61.01
2019-03-02T13:11:21.029Z,61.38
2019-03-02T13:13:56.697Z,60.70
2019-03-02T13:16:41.130Z,60.92
2019-03-02T13:19:32.326Z,60.61
2019-03-02T13:22:05.226Z,60.68
2019-03-02T13:24:42.330Z,60.93
2019-03-02T13:27:28.814Z,60.89
2019-03-02T13:30:07.539Z,58.69
2019-03-02T13:32:52.517Z,57.94
2019-03-02T13:35:59.786Z,57.44
2019-03-02T13:38:30.009Z,57.96
2019-03-02T13:41:30.321Z,58.26
2019-03-02T13:44:14.710Z,58.14
2019-03-02T13:46:51.270Z,57.75
2019-03-02T13:49:46.592Z,58.32
2019-03-02T13:52:53.326Z,57.15
2019-03-02T13:55:34.597Z,57.21
2019-03-02T13:58:14.289Z,57.38
2019-03-02T14:01:06.422Z,57.90
2019-03-02T14:03:52.850Z,58.74
2019-03-02T14:06:40.812Z,58.22
2019-03-02T14:09:30.198Z,58.34
2019-03-02T14:12:15.970Z,58.60
2019-03-02T14:15:03.018Z,58.03
2019-03-02T14:17:55.395Z,58.35
2019-03-02T14:20:31.532Z,58.31
2019-03-02T14:23:32.212Z,58.14
2019-03-02T14:26:04.616Z,57.90
2019-03-02T14:28:37.248Z,58.41
2019-03-02T14:31:08.870Z,58.71
2019-03-02T14:33:55.891Z,58.36
2019-03-02T14:36:34.805Z,58.59
2019-03-02T14:39:21.500Z,59.00
2019-03-02T14:42:07.804Z,58.66
2019-03-02T14:45:06.224Z,58.84
2019-03-02T14:48:09.438Z,59.03
2019-03-02T14:50:45.568Z,59.16
2019-03-02T14:53:30.872Z,59.62
2019-03-02T14:56:18.882Z,59.92
2019-03-02T14:59:10.246Z,59.93
2019-03-02T15:01:53.488Z,60.26
2019-03-02T15:04:34.312Z,60.53
2019-03-02T15:07:11.880Z,60.92
2019-03-02T15:09:57.146Z,60.93
2019-03-02T15:12:36.045Z,61.11
2019-03-02T15:15:31.694Z,61.43
2019-03-02T15:18:23.048Z,61.96
2019-03-02T15:21:20.784Z,62.43
2019-03-02T15:24:02.214Z,62.41
2019-03-02T15:26:48.581Z,62.57
2019-03-02T15:29:50.329Z,63.16
2019-03-02T15:32:24.359Z,64.04
2019-03-02T15:35:16.035Z,64.62
2019-03-02T15:38:08.617Z,65.74
2019-03-02T15:41:05.369Z,66.32
2019-03-02T15:43:59.877Z,66.50
2019-03-02T15:46:37.170Z,67.09
2019-03-02T15:49:25.898Z,67.42
2019-03-02T15:52:04.222Z,66.96
2019-03-02T15:54:41.289Z,67.42
2019-03-02T15:57:26.250Z,67.41
2019-03-02T16:00:20.865Z,67.38
2019-03-02T16:02:57.334Z,67.71
2019-03-02T16:05:49.941Z,67.68
2019-03-02T16:08:36.759Z,67.84
2019-03-02T16:11:20.277Z,67.89
2019-03-02T16:14:04.377Z,68.27
2019-03-02T16:16:44.508Z,67.83
2019-03-02T16:19:42.624Z,69.18
2019-03-02T16:22:33.301Z,70.12
2019-03-02T16:25:18.695Z,70.74
2019-03-02T16:28:06.048Z,71.61
2019-03-02T16:30:41.327Z,73.28
2019-03-02T16:33:31.197Z,74.25
2019-03-02T16:36:16.986Z,74.49
2019-03-02T16:39:06.918Z,75.01
2019-03-02T16:42:14.084Z,75.09
2019-03-02T16:44:59.329Z,75.26
2019-03-02T16:47:37.619Z,75.42
2019-03-02T16:50:16.816Z,75.75
2019-03-02T16:52:59.180Z,75.91
2019-03-02T16:55:45.276Z,76.43
2019-03-02T16:58:32.808Z,76.61
2019-03-02T17:01:09.919Z,77.09
2019-03-02T17:03:50.065Z,77.39
2019-03-02T17:06:28.862Z,77.26
2019-03-02T17:09:07.932Z,77.74
2019-03-02T17:11:43.742Z,77.67
2019-03-02T17:14:28.140Z,78.03
2019-03-02T17:17:24.653Z,77.93
2019-03-02T17:20:11.735Z,78.76
2019-03-02T17:23:21.179Z,78.54
2019-03-02T17:26:00.144Z,80.06
2019-03-02T17:28:44.804Z,80.89
2019-03-02T17:31:19.390Z,80.83
2019-03-02T17:34:10.812Z,80.96
2019-03-02T17:36:54.271Z,81.26
2019-03-02T17:39:40.669Z,81.12
2019-03-02T17:42:28.087Z,81.58
2019-03-02T17:45:24.092Z,82.17
2019-03-02T17:48:19.204Z,82.36
2019-03-02T17:50:58.728Z,82.04
2019-03-02T17:53:38.521Z,82.08
2019-03-02T17:56:40.970Z,82.15
2019-03-02T17:59:24.894Z,82.78
2019-03-02T18:01:58.335Z,82.42
2019-03-02T18:04:35.446Z,82.23
2019-03-02T18:07:13.523Z,82.54
2019-03-02T18:10:00.978Z,82.82
2019-03-02T18:12:38.209Z,82.65
2019-03-02T18:15:40.524Z,82.82
2019-03-02T18:18:10.284Z,82.63
2019-03-02T18:20:37.154Z,82.79
2019-03-02T18:23:04.667Z,82.97
2019-03-02T18:25:31.386Z,82.93
2019-03-02T18:27:59.337Z,82.87
2019-03-02T18:30:29.104Z,82.96
2019-03-02T18:33:00.058Z,82.91
2019-03-02T18:35:26.823Z,83.42
2019-03-02T18:37:53.648Z,83.56
2019-03-02T18:40:21.761Z,83.77
2019-03-02T18:42:48.743Z,83.99
2019-03-02T18:45:15.481Z,83.97
2019-03-02T18:47:42.233Z,84.24
2019-03-02T18:50:33.827Z,84.28
2019-03-02T18:53:03.859Z,84.55
2019-03-02T18:55:31.178Z,84.63
2019-03-02T18:57:58.817Z,84.31
2019-03-02T19:00:28.569Z,84.25
2019-03-02T19:02:55.291Z,83.95
2019-03-02T19:05:28.397Z,83.67
2019-03-02T19:07:56.823Z,83.63
2019-03-02T19:10:23.785Z,83.49
2019-03-02T19:12:50.622Z,83.36
2019-03-02T19:15:17.340Z,83.15
2019-03-02T19:17:47.749Z,82.72
2019-03-02T19:20:14.474Z,82.95
2019-03-02T19:22:42.698Z,83.46
2019-03-02T19:25:09.422Z,83.50
2019-03-02T19:27:36.124Z,83.34
2019-03-02T19:30:03.132Z,82.99
2019-03-02T19:32:30.057Z,83.27
2019-03-02T19:34:56.770Z,83.64
2019-03-02T19:37:23.838Z,83.85
2019-03-02T19:39:50.612Z,83.84
2019-03-02T19:42:17.460Z,83.40
2019-03-02T19:44:44.202Z,83.57
2019-03-02T19:47:11.368Z,83.66
2019-03-02T19:49:43.794Z,83.42
2019-03-02T19:52:16.812Z,83.23
2019-03-02T19:54:49.457Z,83.25
2019-03-02T19:57:16.324Z,83.36
2019-03-02T19:59:43.048Z,83.19
2019-03-02T20:02:10.070Z,83.14
2019-03-02T20:04:36.803Z,83.38
2019-03-02T20:07:03.855Z,83.34
2019-03-02T20:09:30.595Z,83.51
2019-03-02T20:11:57.335Z,83.27
2019-03-02T20:14:24.396Z,83.00
2019-03-02T20:16:51.142Z,83.04
2019-03-02T20:19:17.882Z,83.15
2019-03-02T20:21:44.629Z,83.00
2019-03-02T20:24:11.499Z,82.97
2019-03-02T20:26:38.301Z,82.56
2019-03-02T20:29:05.017Z,82.79
2019-03-02T20:31:31.736Z,82.89
2019-03-02T20:33:58.788Z,83.02
2019-03-02T20:36:25.536Z,82.63
2019-03-02T20:38:52.318Z,82.82
2019-03-02T20:41:19.060Z,82.97
2019-03-02T20:43:47.057Z,83.27
2019-03-02T20:46:13.805Z,82.99
2019-03-02T20:48:40.549Z,82.91
2019-03-02T20:51:07.303Z,82.81
2019-03-02T20:53:34.179Z,82.94
2019-03-02T20:56:01.322Z,82.86
2019-03-02T20:58:28.046Z,82.70
2019-03-02T21:00:54.906Z,82.63
2019-03-02T21:03:23.162Z,82.79
2019-03-02T21:05:49.838Z,82.40
2019-03-02T21:08:16.645Z,82.33
2019-03-02T21:10:44.081Z,81.91
2019-03-02T21:13:10.872Z,81.85
2019-03-02T21:15:38.449Z,81.60
2019-03-02T21:18:05.370Z,81.46
2019-03-02T21:20:32.086Z,81.09
2019-03-02T21:22:58.823Z,81.26
2019-03-02T21:25:26.497Z,81.54
2019-03-02T21:27:54.785Z,81.26
2019-03-02T21:30:21.596Z,81.33
2019-03-02T21:32:49.090Z,81.17
2019-03-02T21:35:18.216Z,81.08
2019-03-02T21:37:44.914Z,80.64
2019-03-02T21:40:14.248Z,80.63
2019-03-02T21:42:41.257Z,80.76
2019-03-02T21:45:12.631Z,80.80
2019-03-02T21:47:39.656Z,80.67
2019-03-02T21:50:10.746Z,81.12
2019-03-02T21:52:37.254Z,81.57
2019-03-02T21:55:04.398Z,81.34
2019-03-02T21:57:32.172Z,81.21
2019-03-02T21:59:58.871Z,81.16
2019-03-02T22:02:25.699Z,80.88
2019-03-02T22:04:52.482Z,81.22
2019-03-02T22:07:19.636Z,80.78
2019-03-02T22:09:46.583Z,80.85
2019-03-02T22:12:13.409Z,80.72
2019-03-02T22:14:40.141Z,80.57
2019-03-02T22:17:06.838Z,80.70
2019-03-02T22:19:33.990Z,80.57
2019-03-02T22:22:00.722Z,80.55
2019-03-02T22:24:27.438Z,80.60
2019-03-02T22:26:54.312Z,80.50
2019-03-02T22:29:21.019Z,80.47
2019-03-02T22:31:47.765Z,80.40
2019-03-02T22:34:14.950Z,80.23
2019-03-02T22:36:41.708Z,80.23
2019-03-02T22:39:08.595Z,80.01
2019-03-02T22:41:35.403Z,79.76
2019-03-02T22:44:02.990Z,79.75
2019-03-02T22:46:29.896Z,79.80
2019-03-02T22:48:56.647Z,79.73
2019-03-02T22:51:23.407Z,79.51
2019-03-02T22:53:50.122Z,79.39
2019-03-02T22:56:16.871Z,79.47
2019-03-02T22:58:46.411Z,79.42
2019-03-02T23:01:52.073Z,79.23
2019-03-02T23:04:18.827Z,78.95
2019-03-02T23:06:45.597Z,78.81
2019-03-02T23:09:12.401Z,78.87
2019-03-02T23:11:39.183Z,79.05
2019-03-02T23:14:06.131Z,79.05
2019-03-02T23:16:32.850Z,78.95
2019-03-02T23:18:59.587Z,78.72
2019-03-02T23:21:28.921Z,78.63
2019-03-02T23:23:55.649Z,78.49
2019-03-02T23:26:22.407Z,78.43
2019-03-02T23:28:49.235Z,77.93
2019-03-02T23:31:16.108Z,77.67
2019-03-02T23:33:42.823Z,77.92
2019-03-02T23:36:09.573Z,78.09
2019-03-02T23:38:36.285Z,77.79
2019-03-02T23:41:03.804Z,77.72
2019-03-02T23:43:30.593Z,77.60
2019-03-02T23:45:57.324Z,78.12
2019-03-02T23:48:24.159Z,78.28
2019-03-02T23:50:50.935Z,78.39
2019-03-02T23:53:17.725Z,78.13
2019-03-02T23:55:44.508Z,78.11
2019-03-02T23:58:14.640Z,78.04
